createdAt,value
2019-03-18T00:01:46.665Z,19.97
2019-03-18T00:04:12.848Z,20.57
2019-03-18T00:06:40.055Z,19.07
2019-03-18T00:09:06.263Z,15.87
2019-03-18T00:11:33.475Z,19.50
2019-03-18T00:13:59.592Z,20.40
2019-03-18T00:16:25.667Z,18.27
2019-03-18T00:18:52.014Z,21.20
2019-03-18T00:21:18.166Z,21.27
2019-03-18T00:23:44.227Z,17.57
2019-03-18T00:26:10.357Z,19.70
2019-03-18T00:28:36.426Z,23.20
2019-03-18T00:31:02.562Z,19.10
2019-03-18T00:33:29.726Z,17.93
2019-03-18T00:35:55.902Z,15.87
2019-03-18T00:38:22.009Z,18.40
2019-03-18T00:40:48.113Z,19.40
2019-03-18T00:43:14.216Z,15.97
2019-03-18T00:45:40.574Z,19.97
2019-03-18T00:48:06.696Z,17.80
2019-03-18T00:50:32.790Z,16.70
2019-03-18T00:52:59.179Z,21.00
2019-03-18T00:55:25.243Z,17.70
2019-03-18T00:57:51.449Z,18.57
2019-03-18T01:00:18.049Z,19.10
2019-03-18T01:02:44.254Z,18.13
2019-03-18T01:05:10.841Z,18.50
2019-03-18T01:07:38.228Z,16.17
2019-03-18T01:10:08.132Z,17.10
2019-03-18T01:12:34.440Z,17.73
2019-03-18T01:15:00.511Z,16.93
2019-03-18T01:17:26.724Z,20.47
2019-03-18T01:19:52.818Z,15.10
2019-03-18T01:22:18.981Z,18.13
2019-03-18T01:24:46.148Z,14.97
2019-03-18T01:27:12.345Z,15.67
2019-03-18T01:29:38.443Z,18.37
2019-03-18T01:32:04.506Z,18.03
2019-03-18T01:34:30.635Z,18.83
2019-03-18T01:36:57.487Z,13.80
2019-03-18T01:39:23.574Z,18.97
2019-03-18T01:41:49.804Z,15.43
2019-03-18T01:44:17.033Z,19.47
2019-03-18T01:46:43.129Z,16.10
2019-03-18T01:49:09.222Z,15.73
2019-03-18T01:51:35.324Z,16.70
2019-03-18T01:54:01.376Z,19.60
2019-03-18T01:56:27.502Z,16.60
2019-03-18T01:58:53.654Z,16.10
2019-03-18T02:01:19.767Z,16.60
2019-03-18T02:03:45.843Z,18.03
2019-03-18T02:06:12.131Z,14.67
2019-03-18T02:08:38.189Z,15.97
2019-03-18T02:11:04.301Z,15.67
2019-03-18T02:13:30.374Z,18.47
2019-03-18T02:15:56.464Z,18.30
2019-03-18T02:18:22.561Z,16.70
2019-03-18T02:20:48.669Z,18.87
2019-03-18T02:23:14.731Z,18.03
2019-03-18T02:25:40.803Z,17.10
2019-03-18T02:28:06.935Z,18.17
2019-03-18T02:30:33.222Z,18.83
2019-03-18T02:32:59.414Z,18.93
2019-03-18T02:35:25.520Z,20.07
2019-03-18T02:37:51.616Z,30.37
2019-03-18T02:40:17.675Z,19.87
2019-03-18T02:42:43.872Z,19.43
2019-03-18T02:45:10.141Z,21.47
2019-03-18T02:47:36.212Z,20.37
2019-03-18T02:50:03.816Z,18.37
2019-03-18T02:52:29.856Z,21.80
2019-03-18T02:54:55.964Z,20.03
2019-03-18T02:57:22.046Z,19.00
2019-03-18T02:59:48.219Z,21.10
2019-03-18T03:02:14.467Z,22.20
2019-03-18T03:04:40.595Z,23.63
2019-03-18T03:07:06.796Z,27.77
2019-03-18T03:09:33.959Z,23.77
2019-03-18T03:12:00.036Z,22.40
2019-03-18T03:14:26.124Z,24.70
2019-03-18T03:16:52.220Z,26.23
2019-03-18T03:19:18.315Z,27.70
2019-03-18T03:21:44.473Z,25.17
2019-03-18T03:24:10.567Z,27.77
2019-03-18T03:26:36.686Z,25.47
2019-03-18T03:29:02.860Z,25.23
2019-03-18T03:31:28.965Z,33.03
2019-03-18T03:33:55.027Z,32.83
2019-03-18T03:36:22.328Z,31.70
2019-03-18T03:38:48.441Z,32.23
2019-03-18T03:41:17.672Z,31.97
2019-03-18T03:43:42.507Z,32.67
2019-03-18T03:46:09.688Z,39.07
2019-03-18T03:48:35.814Z,34.33
2019-03-18T03:51:01.877Z,34.67
2019-03-18T03:53:30.999Z,34.80
2019-03-18T03:55:56.120Z,33.53
2019-03-18T03:58:22.376Z,34.33
2019-03-18T04:00:48.994Z,33.57
2019-03-18T04:03:15.154Z,40.60
2019-03-18T04:05:41.360Z,39.03
2019-03-18T04:08:07.622Z,36.77
2019-03-18T04:10:33.686Z,38.13
2019-03-18T04:12:59.884Z,32.57
2019-03-18T04:15:26.059Z,36.30
2019-03-18T04:17:52.253Z,38.97
2019-03-18T04:20:18.424Z,38.73
2019-03-18T04:22:44.642Z,35.63
2019-03-18T04:25:10.899Z,42.50
2019-03-18T04:27:36.977Z,38.17
2019-03-18T04:30:15.403Z,39.27
2019-03-18T04:32:41.586Z,35.53
2019-03-18T04:35:07.958Z,41.10
2019-03-18T04:37:34.076Z,48.07
2019-03-18T04:40:00.279Z,44.07
2019-03-18T04:42:26.446Z,48.10
2019-03-18T04:44:52.529Z,50.60
2019-03-18T04:47:18.609Z,51.33
2019-03-18T04:49:44.729Z,46.47
2019-03-18T04:52:10.795Z,47.43
2019-03-18T04:54:36.870Z,48.70
2019-03-18T04:57:03.110Z,46.23
2019-03-18T04:59:29.211Z,39.67
2019-03-18T05:01:55.349Z,39.37
2019-03-18T05:04:21.477Z,37.80
2019-03-18T05:06:47.581Z,34.43
2019-03-18T05:09:13.742Z,43.73
2019-03-18T05:11:39.965Z,42.83
2019-03-18T05:14:06.030Z,43.43
2019-03-18T05:16:32.129Z,44.87
2019-03-18T05:18:58.202Z,40.50
2019-03-18T05:21:24.359Z,49.27
2019-03-18T05:23:52.339Z,40.23
2019-03-18T05:26:18.400Z,48.57
2019-03-18T05:28:44.507Z,40.80
2019-03-18T05:31:10.607Z,46.13
2019-03-18T05:33:36.877Z,45.77
2019-03-18T05:36:02.994Z,43.37
2019-03-18T05:38:29.102Z,44.73
2019-03-18T05:40:55.224Z,41.27
2019-03-18T05:43:21.314Z,41.03
2019-03-18T05:45:47.457Z,44.03
2019-03-18T05:48:13.529Z,47.60
2019-03-18T05:50:39.730Z,42.63
2019-03-18T05:53:05.846Z,37.63
2019-03-18T05:55:31.939Z,45.53
2019-03-18T05:57:58.141Z,40.43
2019-03-18T06:00:24.213Z,41.30
2019-03-18T06:02:50.312Z,45.67
2019-03-18T06:05:16.510Z,48.73
2019-03-18T06:07:43.737Z,49.03
2019-03-18T06:10:11.245Z,42.63
2019-03-18T06:12:37.336Z,46.00
2019-03-18T06:15:06.418Z,43.63
2019-03-18T06:17:33.643Z,41.40
2019-03-18T06:19:59.738Z,35.47
2019-03-18T06:22:25.846Z,35.63
2019-03-18T06:24:51.948Z,36.37
2019-03-18T06:27:18.058Z,35.67
2019-03-18T06:29:44.185Z,38.27
2019-03-18T06:32:10.508Z,40.93
2019-03-18T06:34:36.616Z,42.03
2019-03-18T06:37:02.986Z,38.83
2019-03-18T06:39:29.090Z,47.63
2019-03-18T06:41:55.302Z,41.90
2019-03-18T06:44:21.488Z,39.13
2019-03-18T06:46:47.602Z,39.37
2019-03-18T06:49:13.678Z,41.80
2019-03-18T06:51:39.803Z,43.53
2019-03-18T06:54:05.886Z,49.20
2019-03-18T06:56:32.057Z,42.27
2019-03-18T06:58:58.240Z,41.70
2019-03-18T07:01:24.564Z,46.63
2019-03-18T07:03:50.692Z,40.93
2019-03-18T07:06:16.757Z,43.53
2019-03-18T07:08:42.897Z,41.43
2019-03-18T07:11:08.996Z,42.20
2019-03-18T07:13:35.109Z,43.37
2019-03-18T07:16:01.205Z,35.20
2019-03-18T07:18:27.422Z,37.03
2019-03-18T07:20:54.626Z,35.37
2019-03-18T07:23:20.730Z,43.47
2019-03-18T07:25:47.724Z,36.93
2019-03-18T07:28:13.826Z,39.47
2019-03-18T07:30:39.942Z,35.30
2019-03-18T07:33:06.116Z,35.33
2019-03-18T07:35:32.248Z,32.40
2019-03-18T07:37:58.469Z,37.90
2019-03-18T07:40:24.667Z,38.73
2019-03-18T07:42:50.757Z,33.73
2019-03-18T07:45:16.978Z,34.27
2019-03-18T07:47:43.156Z,36.27
2019-03-18T07:50:13.273Z,36.30
2019-03-18T07:52:39.478Z,34.93
2019-03-18T07:55:06.868Z,38.80
2019-03-18T07:57:33.096Z,38.07
2019-03-18T07:59:59.184Z,39.47
2019-03-18T08:02:25.385Z,43.90
2019-03-18T08:04:51.478Z,44.63
2019-03-18T08:07:17.651Z,40.20
2019-03-18T08:09:43.736Z,38.87
2019-03-18T08:12:09.851Z,43.23
2019-03-18T08:14:35.944Z,38.20
2019-03-18T08:17:02.242Z,28.70
2019-03-18T08:19:28.464Z,32.83
2019-03-18T08:21:54.562Z,28.90
2019-03-18T08:24:20.675Z,30.53
2019-03-18T08:26:46.860Z,37.23
2019-03-18T08:29:13.005Z,36.30
2019-03-18T08:31:39.095Z,31.10
2019-03-18T08:34:05.292Z,28.03
2019-03-18T08:36:31.435Z,33.63
2019-03-18T08:38:57.553Z,26.20
2019-03-18T08:41:23.889Z,30.83
2019-03-18T08:43:50.113Z,28.57
2019-03-18T08:46:16.270Z,30.27
2019-03-18T08:48:55.123Z,32.53
2019-03-18T08:51:10.500Z,28.63
2019-03-18T08:53:36.581Z,33.13
2019-03-18T08:56:02.895Z,30.77
2019-03-18T08:58:29.085Z,30.37
2019-03-18T09:00:55.382Z,32.17
2019-03-18T09:03:21.451Z,30.43
2019-03-18T09:05:47.565Z,34.90
2019-03-18T09:08:13.680Z,29.43
2019-03-18T09:10:39.739Z,28.43
2019-03-18T09:13:05.878Z,27.43
2019-03-18T09:15:31.979Z,29.03
2019-03-18T09:17:58.454Z,31.57
2019-03-18T09:20:24.547Z,28.33
2019-03-18T09:22:50.723Z,30.27
2019-03-18T09:25:16.930Z,28.57
2019-03-18T09:27:43.015Z,31.63
2019-03-18T09:30:17.240Z,32.43
2019-03-18T09:32:43.351Z,34.43
2019-03-18T09:35:09.683Z,33.03
2019-03-18T09:37:36.053Z,27.67
2019-03-18T09:40:04.761Z,28.33
2019-03-18T09:42:30.824Z,32.90
2019-03-18T09:44:56.967Z,28.00
2019-03-18T09:47:23.177Z,30.57
2019-03-18T09:49:49.353Z,24.10
2019-03-18T09:52:15.461Z,30.83
2019-03-18T09:54:41.685Z,32.20
2019-03-18T09:57:07.865Z,26.17
2019-03-18T09:59:34.068Z,22.00
2019-03-18T10:02:00.160Z,29.67
2019-03-18T10:04:26.277Z,23.83
2019-03-18T10:06:52.350Z,31.07
2019-03-18T10:09:18.594Z,24.20
2019-03-18T10:11:44.930Z,30.93
2019-03-18T10:14:11.020Z,20.03
2019-03-18T10:16:37.136Z,28.57
2019-03-18T10:19:03.434Z,27.67
2019-03-18T10:21:29.671Z,24.90
2019-03-18T10:23:55.762Z,30.83
2019-03-18T10:26:21.897Z,19.53
2019-03-18T10:28:48.149Z,26.17
2019-03-18T10:31:14.236Z,21.57
2019-03-18T10:33:40.524Z,23.87
2019-03-18T10:36:06.811Z,28.50
2019-03-18T10:38:32.921Z,28.30
2019-03-18T10:40:59.783Z,27.67
2019-03-18T10:43:26.237Z,19.10
2019-03-18T10:45:52.409Z,22.97
2019-03-18T10:48:18.616Z,23.87
2019-03-18T10:50:44.705Z,23.43
2019-03-18T10:53:11.029Z,21.57
2019-03-18T10:55:37.255Z,25.33
2019-03-18T10:58:03.567Z,20.93
2019-03-18T11:00:29.660Z,19.90
2019-03-18T11:02:55.851Z,23.03
2019-03-18T11:05:22.079Z,22.03
2019-03-18T11:07:48.296Z,25.10
2019-03-18T11:10:14.769Z,20.53
2019-03-18T11:12:41.083Z,24.60
2019-03-18T11:15:10.209Z,20.40
2019-03-18T11:17:36.277Z,20.43
2019-03-18T11:20:05.292Z,17.87
2019-03-18T11:22:31.541Z,18.70
2019-03-18T11:24:57.726Z,19.37
2019-03-18T11:27:23.834Z,15.97
2019-03-18T11:29:50.148Z,15.90
2019-03-18T11:32:16.327Z,19.13
2019-03-18T11:34:42.530Z,18.93
2019-03-18T11:37:08.784Z,19.17
2019-03-18T11:39:34.983Z,22.33
2019-03-18T11:42:01.164Z,17.60
2019-03-18T11:44:27.355Z,17.63
2019-03-18T11:46:53.670Z,19.00
2019-03-18T11:49:20.097Z,21.03
2019-03-18T11:51:46.330Z,18.30
2019-03-18T11:54:12.543Z,17.73
2019-03-18T11:56:38.844Z,21.10
2019-03-18T11:59:05.196Z,19.93
2019-03-18T12:01:31.360Z,18.10
2019-03-18T12:03:57.549Z,16.93
2019-03-18T12:06:23.669Z,18.83
2019-03-18T12:08:50.098Z,20.73
2019-03-18T12:11:16.322Z,17.27
2019-03-18T12:13:42.467Z,17.20
2019-03-18T12:16:08.657Z,15.17
2019-03-18T12:18:34.849Z,23.47
2019-03-18T12:21:01.186Z,18.67
2019-03-18T12:23:27.388Z,17.60
2019-03-18T12:25:53.592Z,20.03
2019-03-18T12:28:19.829Z,19.00
2019-03-18T12:30:46.079Z,18.10
2019-03-18T12:33:12.303Z,16.63
2019-03-18T12:35:38.468Z,18.73
2019-03-18T12:38:04.666Z,19.40
2019-03-18T12:40:30.899Z,18.93
2019-03-18T12:42:57.202Z,20.40
2019-03-18T12:45:23.541Z,20.80
2019-03-18T12:47:49.854Z,23.87
2019-03-18T12:50:38.676Z,17.17
2019-03-18T12:52:50.940Z,18.80
2019-03-18T12:55:17.275Z,20.53
2019-03-18T12:57:43.599Z,19.80
2019-03-18T13:00:16.226Z,21.13
2019-03-18T13:02:42.600Z,15.90
2019-03-18T13:05:09.349Z,21.80
2019-03-18T13:07:35.642Z,22.10
2019-03-18T13:10:05.852Z,17.47
2019-03-18T13:12:32.136Z,18.90
2019-03-18T13:14:58.257Z,17.53
2019-03-18T13:17:24.376Z,20.33
2019-03-18T13:19:50.580Z,18.17
2019-03-18T13:22:16.806Z,22.57
2019-03-18T13:24:43.159Z,19.57
2019-03-18T13:27:09.351Z,20.03
2019-03-18T13:29:35.458Z,19.80
2019-03-18T13:32:01.631Z,25.33
2019-03-18T13:34:27.874Z,20.37
2019-03-18T13:36:54.164Z,21.73
2019-03-18T13:39:20.348Z,22.43
2019-03-18T13:41:46.450Z,21.43
2019-03-18T13:44:12.789Z,19.47
2019-03-18T13:46:38.966Z,18.80
2019-03-18T13:49:05.208Z,16.17
2019-03-18T13:51:31.454Z,21.33
2019-03-18T13:53:57.623Z,18.27
2019-03-18T13:56:23.871Z,16.77
2019-03-18T13:58:49.974Z,17.80
2019-03-18T14:01:16.296Z,16.13
2019-03-18T14:03:42.392Z,17.33
2019-03-18T14:06:08.998Z,17.63
2019-03-18T14:08:35.244Z,17.93
2019-03-18T14:11:02.819Z,16.77
2019-03-18T14:13:29.169Z,16.77
2019-03-18T14:15:55.387Z,17.27
2019-03-18T14:18:22.792Z,18.00
2019-03-18T14:20:49.047Z,16.63
2019-03-18T14:23:15.232Z,18.50
2019-03-18T14:25:41.575Z,13.87
2019-03-18T14:28:07.731Z,20.13
2019-03-18T14:30:34.026Z,16.73
2019-03-18T14:33:00.261Z,16.13
2019-03-18T14:35:26.337Z,15.33
2019-03-18T14:37:52.560Z,18.40
2019-03-18T14:40:19.738Z,16.80
2019-03-18T14:42:46.020Z,17.93
2019-03-18T14:45:17.321Z,14.13
2019-03-18T14:47:43.557Z,18.77
2019-03-18T14:50:11.057Z,15.53
2019-03-18T14:52:37.135Z,16.80
2019-03-18T14:55:06.264Z,18.17
2019-03-18T14:57:32.358Z,21.70
2019-03-18T14:59:58.516Z,21.97
2019-03-18T15:02:24.794Z,23.67
2019-03-18T15:04:51.139Z,18.13
2019-03-18T15:07:17.234Z,18.00
2019-03-18T15:09:43.382Z,19.87
2019-03-18T15:12:09.693Z,19.13
2019-03-18T15:14:35.927Z,18.03
2019-03-18T15:17:02.106Z,19.17
2019-03-18T15:19:28.298Z,17.23
2019-03-18T15:21:58.751Z,21.53
2019-03-18T15:24:22.625Z,15.10
2019-03-18T15:26:48.889Z,16.20
2019-03-18T15:29:15.078Z,12.70
2019-03-18T15:31:41.811Z,16.90
2019-03-18T15:34:09.239Z,17.37
2019-03-18T15:36:35.364Z,16.40
2019-03-18T15:39:01.755Z,16.00
2019-03-18T15:41:28.107Z,19.97
2019-03-18T15:43:54.337Z,16.33
2019-03-18T15:46:20.677Z,15.70
2019-03-18T15:48:47.123Z,17.40
2019-03-18T15:51:13.454Z,20.00
2019-03-18T15:53:39.579Z,20.43
2019-03-18T15:56:05.741Z,17.00
2019-03-18T15:58:31.837Z,17.30
2019-03-18T16:00:57.958Z,21.53
2019-03-18T16:03:24.079Z,15.83
2019-03-18T16:05:50.266Z,15.87
2019-03-18T16:08:16.611Z,16.90
2019-03-18T16:10:42.972Z,16.10
2019-03-18T16:13:09.195Z,22.83
2019-03-18T16:15:35.442Z,18.97
2019-03-18T16:18:01.630Z,17.43
2019-03-18T16:20:27.725Z,19.83
2019-03-18T16:22:53.935Z,15.27
2019-03-18T16:25:20.443Z,17.70
2019-03-18T16:27:46.701Z,18.10
2019-03-18T16:30:20.502Z,18.93
2019-03-18T16:32:46.947Z,21.57
2019-03-18T16:35:15.890Z,16.13
2019-03-18T16:37:42.151Z,21.03
2019-03-18T16:40:10.678Z,19.40
2019-03-18T16:42:37.003Z,18.77
2019-03-18T16:45:06.629Z,21.03
2019-03-18T16:47:32.785Z,19.67
2019-03-18T16:49:59.009Z,18.93
2019-03-18T16:52:35.246Z,19.93
2019-03-18T16:54:53.439Z,19.73
2019-03-18T16:57:19.564Z,16.57
2019-03-18T16:59:46.945Z,19.80
2019-03-18T17:02:13.070Z,18.90
2019-03-18T17:04:39.266Z,22.47
2019-03-18T17:07:05.412Z,14.07
2019-03-18T17:09:31.696Z,20.13
2019-03-18T17:11:58.003Z,18.47
2019-03-18T17:14:24.128Z,22.40
2019-03-18T17:16:50.256Z,20.53
2019-03-18T17:19:16.676Z,21.47
2019-03-18T17:21:42.899Z,15.23
2019-03-18T17:24:09.031Z,20.17
2019-03-18T17:26:35.352Z,18.17
2019-03-18T17:29:01.674Z,15.07
2019-03-18T17:31:27.908Z,18.63
2019-03-18T17:33:54.145Z,20.73
2019-03-18T17:36:20.517Z,20.03
2019-03-18T17:38:47.705Z,18.60
2019-03-18T17:41:13.906Z,15.80
2019-03-18T17:43:40.005Z,23.60
2019-03-18T17:46:06.292Z,20.63
2019-03-18T17:48:32.531Z,21.87
2019-03-18T17:50:58.942Z,18.40
2019-03-18T17:53:25.060Z,20.20
2019-03-18T17:55:51.409Z,21.23
2019-03-18T17:58:17.637Z,25.53
2019-03-18T18:00:45.960Z,20.03
2019-03-18T18:03:12.104Z,16.87
2019-03-18T18:05:38.339Z,17.30
2019-03-18T18:08:04.689Z,18.40
2019-03-18T18:10:31.970Z,23.97
2019-03-18T18:12:58.178Z,22.90
2019-03-18T18:15:24.619Z,20.13
2019-03-18T18:17:50.911Z,21.47
2019-03-18T18:20:17.143Z,24.57
2019-03-18T18:22:43.414Z,20.40
2019-03-18T18:25:11.061Z,22.17
2019-03-18T18:27:37.257Z,18.70
2019-03-18T18:30:06.886Z,21.10
2019-03-18T18:32:33.303Z,20.97
2019-03-18T18:34:59.614Z,26.13
2019-03-18T18:37:26.783Z,18.77
2019-03-18T18:39:52.878Z,23.10
2019-03-18T18:42:19.128Z,21.20
2019-03-18T18:44:45.228Z,20.23
2019-03-18T18:47:11.523Z,16.93
2019-03-18T18:49:37.909Z,19.13
2019-03-18T18:52:04.211Z,21.10
2019-03-18T18:54:30.566Z,17.03
2019-03-18T18:56:56.784Z,21.53
2019-03-18T18:59:23.205Z,22.60
2019-03-18T19:01:50.670Z,17.80
2019-03-18T19:04:17.217Z,17.83
2019-03-18T19:06:43.352Z,20.83
2019-03-18T19:09:09.506Z,20.83
2019-03-18T19:11:35.689Z,23.60
2019-03-18T19:14:01.927Z,22.40
2019-03-18T19:16:28.399Z,21.70
2019-03-18T19:18:54.455Z,21.23
2019-03-18T19:21:20.650Z,23.53
2019-03-18T19:23:46.872Z,19.33
2019-03-18T19:26:13.091Z,17.23
2019-03-18T19:28:39.357Z,24.37
2019-03-18T19:31:05.464Z,18.87
2019-03-18T19:33:31.781Z,27.10
2019-03-18T19:35:58.209Z,23.33
2019-03-18T19:38:24.324Z,15.80
2019-03-18T19:40:50.419Z,17.03
2019-03-18T19:43:16.611Z,25.87
2019-03-18T19:45:43.125Z,22.67
2019-03-18T19:48:09.336Z,22.07
2019-03-18T19:50:35.452Z,23.73
2019-03-18T19:53:01.716Z,22.77
2019-03-18T19:55:28.039Z,19.43
2019-03-18T19:57:54.273Z,18.40
2019-03-18T20:00:22.858Z,20.87
2019-03-18T20:02:49.332Z,23.80
2019-03-18T20:05:18.648Z,18.57
2019-03-18T20:07:43.727Z,21.63
2019-03-18T20:10:15.550Z,20.50
2019-03-18T20:12:41.752Z,20.23
2019-03-18T20:15:10.664Z,16.60
2019-03-18T20:17:36.908Z,22.40
2019-03-18T20:20:06.880Z,20.37
2019-03-18T20:22:33.324Z,20.10
2019-03-18T20:24:59.658Z,16.87
2019-03-18T20:27:25.999Z,19.13
2019-03-18T20:29:52.312Z,17.17
2019-03-18T20:32:18.646Z,22.27
2019-03-18T20:34:44.933Z,18.57
2019-03-18T20:37:12.159Z,20.03
2019-03-18T20:39:39.461Z,20.37
2019-03-18T20:42:05.595Z,24.53
2019-03-18T20:44:31.768Z,19.83
2019-03-18T20:46:57.913Z,18.00
2019-03-18T20:49:24.106Z,21.63
2019-03-18T20:51:50.330Z,21.90
2019-03-18T20:54:16.623Z,21.30
2019-03-18T20:56:42.814Z,20.63
2019-03-18T20:59:09.063Z,19.67
2019-03-18T21:01:35.232Z,20.43
2019-03-18T21:04:01.453Z,24.07
2019-03-18T21:06:27.555Z,22.87
2019-03-18T21:08:54.894Z,21.80
2019-03-18T21:11:21.015Z,19.07
2019-03-18T21:13:56.753Z,21.60
2019-03-18T21:16:15.269Z,24.13
2019-03-18T21:18:43.912Z,23.00
2019-03-18T21:21:09.411Z,25.17
2019-03-18T21:23:36.546Z,30.77
2019-03-18T21:26:02.950Z,34.50
2019-03-18T21:28:29.179Z,21.00
2019-03-18T21:30:55.279Z,21.80
2019-03-18T21:33:21.551Z,24.93
2019-03-18T21:35:47.752Z,22.63
2019-03-18T21:38:13.858Z,29.83
2019-03-18T21:40:40.087Z,26.70
2019-03-18T21:43:06.304Z,25.07
2019-03-18T21:45:32.502Z,24.43
2019-03-18T21:47:58.803Z,25.53
2019-03-18T21:50:24.888Z,22.37
2019-03-18T21:52:52.220Z,30.57
2019-03-18T21:55:18.648Z,27.70
2019-03-18T21:57:45.022Z,29.43
2019-03-18T22:00:21.777Z,22.70
2019-03-18T22:02:48.091Z,25.27
2019-03-18T22:05:14.411Z,24.10
2019-03-18T22:07:40.721Z,25.97
2019-03-18T22:10:18.249Z,23.17
2019-03-18T22:12:45.341Z,23.50
2019-03-18T22:15:12.960Z,31.50
2019-03-18T22:17:39.380Z,26.10
2019-03-18T22:20:13.752Z,28.50
2019-03-18T22:22:39.965Z,26.80
2019-03-18T22:25:07.868Z,25.13
2019-03-18T22:27:34.072Z,25.87
2019-03-18T22:30:00.326Z,27.13
2019-03-18T22:32:26.446Z,24.83
2019-03-18T22:34:52.640Z,25.73
2019-03-18T22:37:18.861Z,31.80
2019-03-18T22:39:44.962Z,24.13
2019-03-18T22:42:11.052Z,23.27
2019-03-18T22:44:37.176Z,36.03
2019-03-18T22:47:03.484Z,27.07
2019-03-18T22:49:29.541Z,29.30
2019-03-18T22:51:55.651Z,29.73
2019-03-18T22:54:21.954Z,30.33
2019-03-18T22:56:48.041Z,27.43
2019-03-18T22:59:14.099Z,28.63
2019-03-18T23:01:40.332Z,29.93
2019-03-18T23:04:06.424Z,26.20
2019-03-18T23:06:32.766Z,31.70
2019-03-18T23:08:58.992Z,25.87
2019-03-18T23:11:25.104Z,26.90
2019-03-18T23:13:51.519Z,26.53
2019-03-18T23:16:19.538Z,22.47
2019-03-18T23:18:45.732Z,24.37
2019-03-18T23:21:13.052Z,24.37
2019-03-18T23:23:39.153Z,29.50
2019-03-18T23:26:05.360Z,27.70
2019-03-18T23:28:32.676Z,25.03
2019-03-18T23:30:58.999Z,26.53
2019-03-18T23:33:25.079Z,25.37
2019-03-18T23:35:51.414Z,25.77
2019-03-18T23:38:17.648Z,25.60
2019-03-18T23:40:44.828Z,27.37
2019-03-18T23:43:10.937Z,24.63
2019-03-18T23:45:37.135Z,26.50
2019-03-18T23:48:03.615Z,29.53
2019-03-18T23:50:29.665Z,23.93
2019-03-18T23:52:55.757Z,26.97
2019-03-18T23:55:21.929Z,26.20
2019-03-18T23:57:48.119Z,31.80
